createdAt,value
2022-09-05T00:01:17.268Z,22.46
2022-09-05T00:06:36.987Z,22.10
2022-09-05T00:11:51.172Z,22.05
2022-09-05T00:17:04.822Z,22.02
2022-09-05T00:22:12.975Z,22.17
2022-09-05T00:27:53.621Z,21.99
2022-09-05T00:33:26.943Z,21.09
2022-09-05T00:38:37.006Z,21.22
2022-09-05T00:43:47.173Z,21.81
2022-09-05T00:48:57.353Z,21.34
2022-09-05T00:54:02.741Z,21.82
2022-09-05T00:59:29.200Z,20.41
2022-09-05T01:04:56.286Z,21.18
2022-09-05T01:10:35.166Z,21.71
2022-09-05T01:16:05.061Z,21.17
2022-09-05T01:21:32.555Z,21.16
2022-09-05T01:26:51.074Z,21.54
2022-09-05T01:32:20.937Z,21.37
2022-09-05T01:37:37.430Z,19.97
2022-09-05T01:42:57.069Z,20.09
2022-09-05T01:48:13.824Z,19.42
2022-09-05T01:54:00.515Z,19.19
2022-09-05T01:59:24.511Z,18.98
2022-09-05T02:05:11.567Z,19.84
2022-09-05T02:10:37.603Z,20.71
2022-09-05T02:16:12.437Z,21.09
2022-09-05T02:21:56.931Z,21.00
2022-09-05T02:27:31.868Z,20.91
2022-09-05T02:33:02.470Z,20.16
2022-09-05T02:39:24.061Z,20.68
2022-09-05T02:45:13.857Z,19.59
2022-09-05T02:49:45.077Z,19.16
2022-09-05T02:57:43.480Z,19.89
2022-09-05T03:00:25.482Z,19.66
2022-09-05T03:05:40.048Z,20.61
2022-09-05T03:11:02.297Z,20.82
2022-09-05T03:16:28.941Z,21.02
2022-09-05T03:22:16.127Z,21.04
2022-09-05T03:27:48.452Z,20.45
2022-09-05T03:32:53.749Z,19.62
2022-09-05T03:39:02.563Z,19.82
2022-09-05T03:44:23.730Z,20.63
2022-09-05T03:51:09.291Z,20.27
2022-09-05T03:57:19.054Z,20.51
2022-09-05T04:00:36.488Z,20.24
2022-09-05T04:08:26.185Z,20.28
2022-09-05T04:11:35.729Z,19.17
2022-09-05T04:17:27.480Z,18.88
2022-09-05T04:22:48.498Z,18.63
2022-09-05T04:28:14.698Z,18.84
2022-09-05T04:33:36.161Z,18.67
2022-09-05T04:38:44.673Z,18.69
2022-09-05T04:43:51.140Z,18.82
2022-09-05T04:49:24.355Z,19.04
2022-09-05T04:54:33.222Z,18.71
2022-09-05T05:06:05.502Z,19.23
2022-09-05T05:06:17.111Z,19.28
2022-09-05T05:17:54.142Z,19.80
2022-09-05T05:18:14.370Z,20.27
2022-09-05T05:22:18.392Z,20.76
2022-09-05T05:27:46.954Z,20.83
2022-09-05T05:32:54.891Z,20.30
2022-09-05T05:38:15.609Z,20.09
2022-09-05T05:43:36.468Z,19.94
2022-09-05T05:48:44.161Z,19.81
2022-09-05T05:53:57.518Z,20.26
2022-09-05T05:59:37.499Z,20.64
2022-09-05T06:05:11.295Z,20.82
2022-09-05T06:14:48.638Z,21.24
2022-09-05T06:16:47.880Z,21.76
2022-09-05T06:22:15.781Z,22.00
2022-09-05T06:28:05.559Z,21.94
2022-09-05T06:33:54.052Z,22.14
2022-09-05T06:39:05.356Z,21.60
2022-09-05T06:44:41.400Z,22.04
2022-09-05T06:49:56.024Z,22.30
2022-09-05T06:55:08.621Z,22.51
2022-09-05T07:00:39.024Z,22.64
2022-09-05T07:06:19.824Z,22.76
2022-09-05T07:11:44.896Z,23.10
2022-09-05T07:16:58.327Z,23.77
2022-09-05T07:22:00.687Z,24.11
2022-09-05T07:27:09.042Z,24.72
2022-09-05T07:32:22.386Z,25.30
2022-09-05T07:37:41.949Z,26.06
2022-09-05T07:43:09.531Z,26.47
2022-09-05T07:48:34.160Z,27.12
2022-09-05T07:57:08.503Z,27.25
2022-09-05T07:59:08.555Z,27.95
2022-09-05T08:04:23.304Z,28.15
2022-09-05T08:10:06.175Z,28.46
2022-09-05T08:14:53.854Z,28.44
2022-09-05T08:20:28.935Z,29.48
2022-09-05T08:25:58.999Z,29.77
2022-09-05T08:31:24.423Z,30.18
2022-09-05T08:36:36.395Z,31.03
2022-09-05T08:42:07.825Z,31.94
2022-09-05T08:47:22.211Z,31.72
2022-09-05T08:52:42.424Z,32.49
2022-09-05T08:58:06.281Z,33.55
2022-09-05T09:03:34.711Z,33.73
2022-09-05T09:09:13.051Z,33.75
2022-09-05T09:14:33.596Z,34.83
2022-09-05T09:20:14.877Z,35.28
2022-09-05T09:25:23.642Z,35.00
2022-09-05T09:30:32.268Z,35.30
2022-09-05T09:35:53.026Z,36.16
2022-09-05T09:41:27.018Z,36.50
2022-09-05T09:46:47.717Z,36.16
2022-09-05T09:52:20.768Z,36.82
2022-09-05T09:57:29.784Z,37.07
2022-09-05T10:06:40.781Z,37.32
2022-09-05T10:10:47.867Z,37.40
2022-09-05T10:14:47.796Z,38.91
2022-09-05T10:20:18.082Z,38.04
2022-09-05T10:25:21.407Z,38.06
2022-09-05T10:31:39.842Z,38.96
2022-09-05T10:36:23.449Z,38.97
2022-09-05T10:41:39.555Z,39.58
2022-09-05T10:46:51.261Z,39.66
2022-09-05T10:52:18.229Z,40.19
2022-09-05T10:57:54.454Z,40.51
2022-09-05T11:03:00.980Z,41.47
2022-09-05T11:08:15.093Z,42.17
2022-09-05T11:13:50.045Z,41.08
2022-09-05T11:19:00.833Z,41.81
2022-09-05T11:24:32.094Z,40.10
2022-09-05T11:29:46.420Z,39.24
2022-09-05T11:40:00.117Z,37.40
2022-09-05T11:41:13.392Z,36.33
2022-09-05T11:46:25.375Z,35.46
2022-09-05T11:51:55.235Z,39.60
2022-09-05T11:57:02.224Z,38.51
2022-09-05T12:02:32.762Z,38.07
2022-09-05T12:08:00.287Z,34.98
2022-09-05T12:13:08.967Z,33.97
2022-09-05T12:18:26.086Z,32.78
2022-09-05T12:24:36.787Z,32.63
2022-09-05T12:29:34.243Z,31.86
2022-09-05T12:36:10.173Z,31.94
2022-09-05T12:41:39.049Z,31.81
2022-09-05T12:46:24.491Z,31.48
2022-09-05T12:51:45.826Z,31.06
2022-09-05T13:02:55.479Z,31.32
2022-09-05T13:03:14.502Z,30.48
2022-09-05T13:08:21.029Z,31.28
2022-09-05T13:14:58.749Z,31.00
2022-09-05T13:19:04.467Z,32.43
2022-09-05T13:24:14.517Z,36.39
2022-09-05T13:29:21.785Z,38.21
2022-09-05T13:38:02.656Z,39.14
2022-09-05T13:40:12.399Z,40.07
2022-09-05T13:45:18.737Z,39.65
2022-09-05T13:50:26.792Z,41.72
2022-09-05T13:56:00.497Z,41.86
2022-09-05T14:01:12.149Z,41.04
2022-09-05T14:06:52.055Z,41.40
2022-09-05T14:12:26.959Z,39.74
2022-09-05T14:17:53.688Z,40.31
2022-09-05T14:23:08.985Z,40.10
2022-09-05T14:28:39.800Z,40.29
2022-09-05T14:37:46.539Z,38.32
2022-09-05T14:39:41.000Z,35.41
2022-09-05T14:45:08.457Z,34.85
2022-09-05T14:50:28.144Z,37.03
2022-09-05T14:55:31.121Z,37.16
2022-09-05T15:02:51.313Z,37.49
2022-09-05T15:06:28.107Z,33.03
2022-09-05T15:12:23.425Z,33.67
2022-09-05T15:17:05.715Z,34.45
2022-09-05T15:22:27.455Z,34.34
2022-09-05T15:27:30.983Z,32.26
2022-09-05T15:32:38.060Z,32.46
2022-09-05T15:37:42.999Z,33.27
2022-09-05T15:42:57.878Z,32.08
2022-09-05T15:48:22.175Z,32.43
2022-09-05T15:53:29.377Z,31.76
2022-09-05T15:58:52.643Z,31.62
2022-09-05T16:07:20.944Z,31.56
2022-09-05T16:10:41.288Z,30.55
2022-09-05T16:15:37.983Z,29.87
2022-09-05T16:23:26.019Z,29.52
2022-09-05T16:26:01.085Z,29.43
2022-09-05T16:31:15.820Z,29.35
2022-09-05T16:36:32.727Z,29.05
2022-09-05T16:41:58.866Z,29.11
2022-09-05T16:47:29.829Z,29.19
2022-09-05T16:52:54.036Z,28.96
2022-09-05T16:58:23.293Z,28.95
2022-09-05T17:03:34.568Z,28.85
2022-09-05T17:08:37.416Z,28.84
2022-09-05T17:13:43.504Z,28.81
2022-09-05T17:18:51.090Z,28.59
2022-09-05T17:29:16.083Z,28.25
2022-09-05T17:35:18.131Z,27.86
2022-09-05T17:41:02.104Z,27.79
2022-09-05T17:46:16.301Z,27.62
2022-09-05T17:51:27.938Z,27.70
2022-09-05T17:56:40.685Z,27.61
2022-09-05T18:02:03.322Z,27.46
2022-09-05T18:07:25.849Z,27.14
2022-09-05T18:13:12.985Z,27.11
2022-09-05T18:18:31.345Z,26.89
2022-09-05T18:23:51.695Z,26.78
2022-09-05T18:29:16.574Z,26.89
2022-09-05T18:34:19.105Z,26.92
2022-09-05T18:39:24.812Z,27.01
2022-09-05T18:44:31.012Z,26.99
2022-09-05T18:50:24.739Z,27.01
2022-09-05T18:56:11.162Z,26.90
2022-09-05T19:00:46.768Z,26.46
2022-09-05T19:06:36.887Z,26.50
2022-09-05T19:12:16.213Z,26.55
2022-09-05T19:17:50.600Z,26.52
2022-09-05T19:23:10.210Z,26.44
2022-09-05T19:36:44.369Z,26.52
2022-09-05T19:36:55.087Z,26.25
2022-09-05T19:44:41.318Z,26.06
2022-09-05T19:47:38.548Z,25.91
2022-09-05T19:50:24.315Z,25.78
2022-09-05T19:55:28.208Z,26.03
2022-09-05T20:00:31.639Z,26.06
2022-09-05T20:05:40.343Z,26.09
2022-09-05T20:10:43.105Z,25.93
2022-09-05T20:15:45.614Z,25.84
2022-09-05T20:21:25.953Z,25.82
2022-09-05T20:26:33.666Z,25.90
2022-09-05T20:31:37.595Z,25.84
2022-09-05T20:43:09.198Z,25.74
2022-09-05T20:43:32.029Z,25.68
2022-09-05T20:54:04.395Z,25.57
2022-09-05T20:54:31.620Z,25.35
2022-09-05T20:58:58.512Z,25.01
2022-09-05T21:04:05.763Z,24.91
2022-09-05T21:09:25.752Z,24.80
2022-09-05T21:14:29.791Z,24.62
2022-09-05T21:19:34.080Z,24.54
2022-09-05T21:24:37.053Z,24.52
2022-09-05T21:29:39.780Z,24.55
2022-09-05T21:34:49.025Z,24.58
2022-09-05T21:40:00.223Z,24.45
2022-09-05T21:47:37.715Z,24.35
2022-09-05T21:50:31.262Z,24.55
2022-09-05T21:59:21.902Z,24.35
2022-09-05T22:00:57.923Z,24.49
2022-09-05T22:06:03.929Z,24.81
2022-09-05T22:11:11.486Z,24.56
2022-09-05T22:16:15.388Z,24.49
2022-09-05T22:21:32.607Z,24.20
2022-09-05T22:27:06.296Z,24.46
2022-09-05T22:32:07.259Z,24.70
2022-09-05T22:37:09.735Z,24.79
2022-09-05T22:42:12.209Z,25.01
2022-09-05T22:47:14.847Z,25.16
2022-09-05T22:52:17.591Z,25.23
2022-09-05T22:57:20.090Z,25.25
2022-09-05T23:02:22.538Z,25.22
2022-09-05T23:07:25.012Z,25.21
2022-09-05T23:12:27.450Z,24.39
2022-09-05T23:17:30.171Z,24.18
2022-09-05T23:22:35.188Z,23.91
2022-09-05T23:27:38.205Z,24.40
2022-09-05T23:32:48.377Z,24.67
2022-09-05T23:37:51.270Z,24.58
2022-09-05T23:42:55.735Z,24.61
2022-09-05T23:47:58.894Z,24.54
2022-09-05T23:53:04.265Z,24.53
2022-09-05T23:58:06.837Z,24.67
